Other Surface Observations
Issued by NWS Great Falls, MT

Home | Current Version | Previous Version | Text Only | Print | Product List | Glossary On
Versions: 1 2 3 4 5 6 7 8 9 10 11 12 13 14 15 16 17 18 19 20 21 22 23 24 25 26 27 28 29 30 31 32 33 34 35 36 37 38 39 40 41 42 43 44 45 46 47 48 49 50
000
SXUS55 KTFX 170545
OSOTFX
AREA AWOS OBSERVATIONS
NATIONAL WEATHER SERVICE GREAT FALLS MT
1144 PM MDT MON OCT 16 2017

METAR KPWD 170545Z AUTO 00000KT 10SM 13/M01 A2987 RMK PLENTYWOOD
METAR K1S3 170545Z AUTO 21003KT 15/M06 A3000 RMK FORSYTH
METAR KS71 170545Z AUTO 23023G29KT 10SM 18/M06 A2982 RMK CHINOOK
METAR K38S 170545Z AUTO 24004KT 10SM 08/M03 A3020 RMK DEER LODGE
METAR K3U3 170545Z AUTO 22004KT 10SM 08/M06 A3020 RMK ANACONDA
METAR K6S5 170545Z AUTO 16009KT 10SM 09/M02 A3017 RMK HAMILTON
METAR KS59 170545Z AUTO 20003KT 10SM 06/01 A3006 RMK LIBBY
METAR K88M 170545Z AUTO 10SM 12/M02 A3004 RMK EUREKA



USA.gov is the U.S. government's official web portal to all federal, state and local government web resources and services.